Time;durP1;ratioP1;P1;durP2;ratioP2;P2;SDS_P1;SDS_P2;PMS_P1;PMS_P2;Temp;Humidity;BMP_temperature;BMP_pressure;BME280_temperature;BME280_humidity;BME280_pressure;Samples;Min_cycle;Max_cycle;Signal;HPM_P1;HPM_P2
2021/12/31 00:01:38;;;;;;;6.22;4.38;;;11.90;99.90;;;;;;4996719;28;20030;-80
2021/12/31 00:04:04;;;;;;;8.73;4.22;;;11.90;99.90;;;;;;4996796;28;20153;-81
2021/12/31 00:06:30;;;;;;;4.82;4.20;;;11.90;99.90;;;;;;4963099;28;20476;-81
2021/12/31 00:08:56;;;;;;;4.93;3.80;;;12.00;99.90;;;;;;4979429;28;20033;-81
2021/12/31 00:11:24;;;;;;;5.95;3.65;;;12.00;99.90;;;;;;4997113;28;20064;-80
2021/12/31 00:13:51;;;;;;;5.97;3.45;;;12.00;99.90;;;;;;5016022;28;20030;-81
2021/12/31 00:16:18;;;;;;;5.97;3.63;;;12.00;99.90;;;;;;5015929;28;20467;-80
2021/12/31 00:18:45;;;;;;;5.43;3.95;;;12.00;99.90;;;;;;5015986;28;20072;-80
2021/12/31 00:21:12;;;;;;;3.85;3.35;;;12.00;99.90;;;;;;5016111;28;20387;-81
2021/12/31 00:23:43;;;;;;;6.00;3.17;;;12.10;99.90;;;;;;5016030;28;20023;-80
2021/12/31 00:26:29;;;;;;;4.93;3.17;;;12.10;99.90;;;;;;5015788;28;20026;-80
2021/12/31 00:28:56;;;;;;;5.40;3.13;;;12.10;99.90;;;;;;4997852;28;20034;-80
2021/12/31 00:31:22;;;;;;;5.05;3.47;;;12.10;99.90;;;;;;4998030;28;20022;-80
2021/12/31 00:33:50;;;;;;;4.75;3.13;;;12.10;99.90;;;;;;4998008;28;20033;-80
2021/12/31 00:36:16;;;;;;;4.93;3.33;;;12.10;99.90;;;;;;4997958;28;20022;-80
2021/12/31 00:38:44;;;;;;;5.07;3.40;;;12.10;99.90;;;;;;5015462;28;20033;-80
2021/12/31 00:41:12;;;;;;;4.93;3.38;;;12.10;99.90;;;;;;5015431;28;20028;-80
2021/12/31 00:43:38;;;;;;;6.53;3.78;;;12.10;99.90;;;;;;5015618;28;20033;-80
2021/12/31 00:46:06;;;;;;;6.65;3.72;;;12.10;99.90;;;;;;4997790;28;20022;-80
2021/12/31 00:48:33;;;;;;;9.30;3.92;;;12.10;99.90;;;;;;5015416;28;20033;-80
2021/12/31 00:51:00;;;;;;;10.75;4.50;;;12.10;99.90;;;;;;5015432;28;20018;-80
2021/12/31 00:53:27;;;;;;;7.80;3.67;;;12.00;99.90;;;;;;5015338;28;20022;-80
2021/12/31 00:55:55;;;;;;;7.22;3.63;;;12.00;99.90;;;;;;5014720;28;20028;-80
2021/12/31 00:58:22;;;;;;;5.72;4.05;;;12.00;99.90;;;;;;5015682;28;20025;-81
2021/12/31 01:00:50;;;;;;;10.95;3.63;;;12.00;99.90;;;;;;4997544;28;20104;-79
2021/12/31 01:03:18;;;;;;;5.53;3.65;;;12.00;99.90;;;;;;5015191;28;20488;-80
2021/12/31 01:05:44;;;;;;;5.97;3.25;;;12.00;99.90;;;;;;5015194;28;20493;-80
2021/12/31 01:08:11;;;;;;;4.38;2.95;;;12.00;99.90;;;;;;5014884;28;20026;-80
2021/12/31 01:10:39;;;;;;;6.85;3.53;;;12.00;99.90;;;;;;5014880;28;20078;-80
2021/12/31 01:13:12;;;;;;;6.45;3.35;;;11.90;99.90;;;;;;5014881;28;20097;-80
2021/12/31 01:15:43;;;;;;;7.13;3.47;;;12.00;99.90;;;;;;5014850;28;20026;-81
2021/12/31 01:20:38;;;;;;;5.90;3.13;;;12.00;99.90;;;;;;5014736;28;20391;-80
2021/12/31 01:23:05;;;;;;;4.95;3.22;;;12.00;99.90;;;;;;4997272;28;20092;-80
2021/12/31 01:25:32;;;;;;;5.22;3.28;;;12.00;99.90;;;;;;4997407;28;20030;-81
2021/12/31 01:27:59;;;;;;;6.88;3.70;;;12.00;99.90;;;;;;5014747;28;20026;-81
2021/12/31 01:30:26;;;;;;;4.97;3.50;;;12.00;99.90;;;;;;5014661;28;20108;-80
2021/12/31 01:32:53;;;;;;;4.22;3.15;;;12.00;99.90;;;;;;5014620;28;20058;-81
2021/12/31 01:35:19;;;;;;;4.10;3.10;;;12.00;99.90;;;;;;5014402;28;20383;-81
2021/12/31 01:37:47;;;;;;;4.78;3.60;;;12.10;99.90;;;;;;5014666;28;20025;-81
2021/12/31 01:40:13;;;;;;;5.40;3.80;;;12.10;99.90;;;;;;4980789;28;20030;-80
2021/12/31 01:42:42;;;;;;;6.68;3.42;;;12.10;99.90;;;;;;4996701;28;20032;-80
2021/12/31 01:45:15;;;;;;;5.00;3.33;;;12.10;99.90;;;;;;4996729;28;20118;-81
2021/12/31 01:50:30;;;;;;;5.82;3.30;;;12.10;99.90;;;;;;4970237;28;20037;-81
2021/12/31 01:52:56;;;;;;;6.78;3.75;;;12.10;99.90;;;;;;4996643;28;20026;-81
2021/12/31 01:55:25;;;;;;;18.55;3.72;;;12.10;99.90;;;;;;4981195;28;20069;-81
2021/12/31 01:57:54;;;;;;;7.25;3.03;;;12.10;99.90;;;;;;4998138;28;20037;-81
2021/12/31 02:00:20;;;;;;;7.47;2.92;;;12.10;99.90;;;;;;5015526;28;20029;-80
2021/12/31 02:02:47;;;;;;;5.57;3.60;;;12.10;99.90;;;;;;5014769;28;20029;-82
2021/12/31 02:05:14;;;;;;;4.05;2.80;;;12.10;99.90;;;;;;4996713;28;20105;-82
2021/12/31 02:07:42;;;;;;;3.88;2.97;;;12.20;99.90;;;;;;4996342;28;20565;-81
2021/12/31 02:10:10;;;;;;;2.33;2.00;;;12.20;99.90;;;;;;4996283;28;20495;-81
2021/12/31 02:12:43;;;;;;;4.65;2.50;;;12.20;99.90;;;;;;5013835;28;20022;-81
2021/12/31 02:15:26;;;;;;;3.45;2.50;;;12.20;99.90;;;;;;5013881;28;20030;-81
2021/12/31 02:17:54;;;;;;;8.18;1.92;;;12.30;99.90;;;;;;5014068;28;20064;-80
2021/12/31 02:20:21;;;;;;;3.28;2.08;;;12.20;99.90;;;;;;5013720;28;20492;-81
2021/12/31 02:23:05;;;;;;;1.88;1.77;;;12.20;99.90;;;;;;5013843;28;20478;-80
2021/12/31 02:25:35;;;;;;;5.05;2.03;;;12.20;99.90;;;;;;5013945;28;20033;-81
2021/12/31 02:28:02;;;;;;;2.38;1.75;;;12.20;99.90;;;;;;4996867;28;20034;-81
2021/12/31 02:30:29;;;;;;;3.13;2.45;;;12.30;99.90;;;;;;4995926;28;20022;-81
2021/12/31 02:32:56;;;;;;;4.30;1.83;;;12.30;99.90;;;;;;5013940;28;20056;-81
2021/12/31 02:35:22;;;;;;;3.47;1.42;;;12.30;99.90;;;;;;5013709;28;20022;-81
2021/12/31 02:37:49;;;;;;;4.88;1.67;;;12.30;99.90;;;;;;4995982;28;20030;-81
2021/12/31 02:40:32;;;;;;;2.28;1.88;;;12.30;99.90;;;;;;4995911;28;20383;-81
2021/12/31 02:42:59;;;;;;;2.30;1.75;;;12.30;99.90;;;;;;5013609;28;20030;-80
2021/12/31 02:45:31;;;;;;;3.50;1.70;;;12.30;99.90;;;;;;4995847;28;20048;-81
2021/12/31 02:48:00;;;;;;;4.32;2.17;;;12.30;99.90;;;;;;4980462;28;20018;-81
2021/12/31 02:50:41;;;;;;;5.63;2.30;;;12.30;99.90;;;;;;5013655;28;20033;-80
2021/12/31 02:53:11;;;;;;;8.30;2.78;;;12.30;99.90;;;;;;4996252;28;20391;-81
2021/12/31 02:55:40;;;;;;;5.15;2.15;;;12.40;99.90;;;;;;4996378;28;20484;-80
2021/12/31 02:58:27;;;;;;;2.40;1.77;;;12.40;99.90;;;;;;4995742;28;20472;-81
2021/12/31 03:00:55;;;;;;;3.97;2.45;;;12.40;99.90;;;;;;5012968;28;20030;-80
2021/12/31 03:03:23;;;;;;;3.03;2.53;;;12.30;99.90;;;;;;4995810;28;20049;-80
2021/12/31 03:05:53;;;;;;;2.20;1.80;;;12.30;99.90;;;;;;4979709;28;20030;-80
2021/12/31 03:08:21;;;;;;;5.35;2.08;;;12.30;99.90;;;;;;4996008;28;20118;-80
2021/12/31 03:10:49;;;;;;;3.75;2.50;;;12.30;99.90;;;;;;4966286;28;20050;-81
2021/12/31 03:13:17;;;;;;;3.38;2.35;;;12.30;99.90;;;;;;4960040;28;20449;-81
2021/12/31 03:15:43;;;;;;;4.03;2.38;;;12.30;99.90;;;;;;4976346;28;20057;-81
2021/12/31 03:18:11;;;;;;;4.97;2.28;;;12.20;99.90;;;;;;4977328;28;20057;-81
2021/12/31 03:20:46;;;;;;;3.58;2.65;;;12.20;99.90;;;;;;4980184;28;20041;-81
2021/12/31 03:23:13;;;;;;;4.50;2.20;;;12.20;99.90;;;;;;4997397;28;20023;-81
2021/12/31 03:25:40;;;;;;;3.83;2.60;;;12.20;99.90;;;;;;4979741;28;20026;-81
2021/12/31 03:28:06;;;;;;;3.40;2.47;;;12.10;99.90;;;;;;4997406;28;20547;-81
2021/12/31 03:30:34;;;;;;;10.98;2.60;;;12.10;99.90;;;;;;4997281;28;20154;-81
2021/12/31 03:33:00;;;;;;;3.38;2.63;;;12.10;99.90;;;;;;4980006;28;20162;-80
2021/12/31 03:35:27;;;;;;;4.82;3.03;;;12.10;99.90;;;;;;4979768;28;20584;-80
2021/12/31 03:37:58;;;;;;;3.05;2.40;;;12.10;99.90;;;;;;4979680;28;20022;-80
2021/12/31 03:40:25;;;;;;;3.03;2.08;;;12.10;99.90;;;;;;4997078;28;20174;-81
2021/12/31 03:42:53;;;;;;;3.63;2.20;;;12.10;99.90;;;;;;4997482;28;20105;-80
2021/12/31 03:45:20;;;;;;;6.85;2.40;;;12.10;99.90;;;;;;4997386;28;20030;-80
2021/12/31 03:47:54;;;;;;;2.85;1.90;;;12.10;99.90;;;;;;4963435;28;20026;-80
2021/12/31 03:50:19;;;;;;;3.33;1.90;;;12.10;99.90;;;;;;4979395;28;20030;-81
2021/12/31 03:52:47;;;;;;;2.72;1.80;;;12.10;99.90;;;;;;4979685;28;20514;-81
2021/12/31 03:55:14;;;;;;;5.18;2.08;;;12.10;99.90;;;;;;4997891;28;20026;-81
2021/12/31 03:57:42;;;;;;;2.63;2.00;;;12.10;99.90;;;;;;4997402;28;20464;-81
2021/12/31 04:00:28;;;;;;;5.38;2.20;;;12.10;99.90;;;;;;4997725;28;20097;-82
2021/12/31 04:02:58;;;;;;;2.20;1.75;;;12.10;99.90;;;;;;4979842;28;20060;-81
2021/12/31 04:05:25;;;;;;;3.05;2.00;;;12.10;99.90;;;;;;4997710;28;20076;-81
2021/12/31 04:07:52;;;;;;;4.82;1.63;;;12.10;99.90;;;;;;4980018;28;20468;-81
2021/12/31 04:10:19;;;;;;;3.17;2.20;;;12.10;99.90;;;;;;4988501;28;20054;-81
2021/12/31 04:12:47;;;;;;;4.53;2.22;;;12.10;99.90;;;;;;5016396;28;20022;-80
2021/12/31 04:15:13;;;;;;;3.42;1.73;;;12.10;99.90;;;;;;4998633;28;20036;-81
2021/12/31 04:17:41;;;;;;;2.38;1.50;;;12.10;99.90;;;;;;4998565;28;20379;-80
2021/12/31 04:20:18;;;;;;;1.67;1.58;;;12.20;99.90;;;;;;5016199;28;20100;-80
2021/12/31 04:22:52;;;;;;;2.50;1.35;;;12.20;99.90;;;;;;5016281;28;20080;-80
2021/12/31 04:25:18;;;;;;;3.83;1.80;;;12.20;99.90;;;;;;4999589;28;20116;-81
2021/12/31 04:27:43;;;;;;;4.90;2.38;;;12.20;99.90;;;;;;4998632;28;20057;-81
2021/12/31 04:30:10;;;;;;;4.25;2.00;;;12.20;99.90;;;;;;5015648;28;20072;-81
2021/12/31 04:32:39;;;;;;;6.68;2.03;;;12.20;99.90;;;;;;4998143;28;20026;-81
2021/12/31 04:35:05;;;;;;;4.75;1.88;;;12.20;99.90;;;;;;4998177;28;20022;-81
2021/12/31 04:37:33;;;;;;;5.90;2.00;;;12.20;99.90;;;;;;5015781;28;20033;-79
2021/12/31 04:40:01;;;;;;;5.22;2.10;;;12.20;99.90;;;;;;4981884;28;20037;-81
2021/12/31 04:42:27;;;;;;;6.95;2.63;;;12.20;99.90;;;;;;5015635;28;20052;-81
2021/12/31 04:44:54;;;;;;;7.18;2.55;;;12.20;99.90;;;;;;4981507;28;20037;-80
2021/12/31 04:47:21;;;;;;;7.57;2.33;;;12.20;99.90;;;;;;5015720;28;20018;-81
2021/12/31 04:49:48;;;;;;;7.00;2.20;;;12.20;99.90;;;;;;5015327;28;20087;-81
2021/12/31 04:52:14;;;;;;;5.05;2.05;;;12.20;99.90;;;;;;5015361;28;20014;-81
2021/12/31 04:54:41;;;;;;;4.35;2.63;;;12.20;99.90;;;;;;5015268;28;20460;-80
2021/12/31 04:57:08;;;;;;;4.82;1.60;;;12.20;99.90;;;;;;5015183;28;20033;-80
2021/12/31 04:59:35;;;;;;;5.43;2.58;;;12.20;99.90;;;;;;4997576;28;20066;-81
2021/12/31 05:02:03;;;;;;;4.60;1.90;;;12.20;99.90;;;;;;4997587;28;20030;-80
2021/12/31 05:04:29;;;;;;;3.67;1.52;;;12.20;99.90;;;;;;4997504;28;20033;-81
2021/12/31 05:06:57;;;;;;;2.28;1.38;;;12.30;99.90;;;;;;4997592;28;20080;-81
2021/12/31 05:09:24;;;;;;;1.55;1.15;;;12.30;99.90;;;;;;5014902;28;20030;-81
2021/12/31 05:11:51;;;;;;;4.63;1.75;;;12.30;99.90;;;;;;5014862;28;20034;-80
2021/12/31 05:14:17;;;;;;;1.50;1.25;;;12.30;99.90;;;;;;5015108;28;20238;-80
2021/12/31 05:16:43;;;;;;;2.42;1.23;;;12.30;99.90;;;;;;5015189;28;20026;-81
2021/12/31 05:19:11;;;;;;;3.47;1.08;;;12.30;99.90;;;;;;4981136;28;20038;-82
2021/12/31 05:21:38;;;;;;;2.78;1.23;;;12.40;99.90;;;;;;4997168;28;20100;-81
2021/12/31 05:24:05;;;;;;;4.05;1.40;;;12.40;99.90;;;;;;5014770;28;20034;-81
2021/12/31 05:26:32;;;;;;;2.72;1.23;;;12.40;99.90;;;;;;4997000;28;20034;-81
2021/12/31 05:29:02;;;;;;;1.50;1.38;;;12.40;99.90;;;;;;4996744;28;20026;-81
2021/12/31 05:31:37;;;;;;;3.25;1.13;;;12.50;99.90;;;;;;5014628;28;20498;-81
2021/12/31 05:34:04;;;;;;;1.48;1.23;;;12.50;99.90;;;;;;4997013;28;20030;-81
2021/12/31 05:36:32;;;;;;;1.90;1.20;;;12.50;99.90;;;;;;5014721;28;20029;-82
2021/12/31 05:39:00;;;;;;;3.10;1.40;;;12.50;99.90;;;;;;5014585;28;20040;-81
2021/12/31 05:41:28;;;;;;;3.63;1.50;;;12.50;99.90;;;;;;5014202;28;20022;-81
2021/12/31 05:44:00;;;;;;;2.50;1.63;;;12.60;99.90;;;;;;5014579;28;20022;-80
2021/12/31 05:46:26;;;;;;;;;;;12.60;99.90;;;;;;4997271;28;20022;-80
2021/12/31 05:48:52;;;;;;;1.88;1.30;;;12.60;99.90;;;;;;4996623;28;19909;-81
2021/12/31 05:51:20;;;;;;;1.40;1.13;;;12.60;99.90;;;;;;4996480;28;20108;-82
2021/12/31 05:53:47;;;;;;;2.25;1.58;;;12.60;99.90;;;;;;5033908;28;20056;-81
2021/12/31 05:56:17;;;;;;;2.17;1.42;;;12.60;99.90;;;;;;5016281;28;20021;-80
2021/12/31 05:58:42;;;;;;;5.75;1.10;;;12.70;99.90;;;;;;5034098;28;20116;-78
2021/12/31 06:01:23;;;;;;;2.88;1.33;;;12.70;99.90;;;;;;5033989;28;20057;-78
2021/12/31 06:03:48;;;;;;;2.00;1.30;;;12.70;99.90;;;;;;5011635;28;20025;-80
2021/12/31 06:06:14;;;;;;;1.17;1.02;;;12.70;99.90;;;;;;5009899;28;20030;-80
2021/12/31 06:08:40;;;;;;;1.42;1.08;;;12.70;99.90;;;;;;5025828;28;20105;-80
2021/12/31 06:11:07;;;;;;;1.67;1.00;;;12.70;99.90;;;;;;5001400;28;20484;-81
2021/12/31 06:13:36;;;;;;;3.40;1.10;;;12.70;99.90;;;;;;4998275;28;20018;-81
2021/12/31 06:16:01;;;;;;;2.95;1.45;;;12.70;99.90;;;;;;4981806;28;20045;-79
2021/12/31 06:18:29;;;;;;;4.30;1.60;;;12.70;99.90;;;;;;4997916;28;20022;-83
2021/12/31 06:20:56;;;;;;;3.80;1.92;;;12.70;99.90;;;;;;5016037;28;20034;-83
2021/12/31 06:23:23;;;;;;;5.18;1.70;;;12.70;99.90;;;;;;4980315;28;20128;-85
2021/12/31 06:25:49;;;;;;;4.03;1.90;;;12.70;99.90;;;;;;5014249;28;20030;-83
2021/12/31 06:28:15;;;;;;;7.47;2.90;;;12.70;99.90;;;;;;4996794;28;20049;-82
2021/12/31 06:30:42;;;;;;;4.10;2.10;;;12.70;99.90;;;;;;4995929;28;20033;-83
2021/12/31 06:33:09;;;;;;;3.83;1.45;;;12.80;99.90;;;;;;5012684;28;20101;-80
2021/12/31 06:35:35;;;;;;;2.42;1.60;;;12.70;99.90;;;;;;5015596;28;20081;-80
2021/12/31 06:38:03;;;;;;;3.88;1.60;;;12.80;99.90;;;;;;4995949;28;20057;-77
2021/12/31 06:40:32;;;;;;;2.80;1.48;;;12.80;99.90;;;;;;5000478;28;20164;-78
2021/12/31 06:43:00;;;;;;;1.75;1.20;;;12.80;99.90;;;;;;4994008;28;20026;-78
2021/12/31 06:45:28;;;;;;;3.17;1.70;;;12.80;99.90;;;;;;4993790;28;20118;-81
2021/12/31 06:47:55;;;;;;;2.92;1.30;;;12.80;99.90;;;;;;4993013;28;20033;-81
2021/12/31 06:50:22;;;;;;;3.03;1.30;;;12.80;99.90;;;;;;4975996;28;20022;-81
2021/12/31 06:52:49;;;;;;;1.92;1.35;;;12.80;99.90;;;;;;4976720;28;20022;-82
2021/12/31 06:55:14;;;;;;;3.35;1.80;;;12.80;99.80;;;;;;4980533;28;20027;-82
2021/12/31 06:57:42;;;;;;;3.42;1.30;;;12.80;99.60;;;;;;4980314;28;20025;-83
2021/12/31 07:00:09;;;;;;;2.75;1.50;;;12.80;99.10;;;;;;4980044;28;20030;-81
2021/12/31 07:02:35;;;;;;;1.92;1.20;;;12.80;99.40;;;;;;4964181;28;20080;-81
2021/12/31 07:05:03;;;;;;;3.25;1.60;;;12.80;99.10;;;;;;4998500;28;20049;-83
2021/12/31 07:07:31;;;;;;;1.50;1.15;;;12.80;99.10;;;;;;4998974;28;20440;-82
2021/12/31 07:09:58;;;;;;;2.05;1.23;;;12.80;99.00;;;;;;5011382;28;20061;-82
2021/12/31 07:12:25;;;;;;;1.98;1.38;;;12.80;98.60;;;;;;5036983;28;20029;-81
2021/12/31 07:14:52;;;;;;;3.85;1.52;;;12.80;98.30;;;;;;5036440;28;20116;-79
2021/12/31 07:17:19;;;;;;;2.50;1.48;;;12.80;98.40;;;;;;4997313;28;20030;-80
2021/12/31 07:19:47;;;;;;;2.88;1.40;;;12.80;98.20;;;;;;4990174;28;20037;-84
2021/12/31 07:22:13;;;;;;;2.20;1.35;;;12.80;98.10;;;;;;5025241;28;20018;-87
2021/12/31 07:24:38;;;;;;;2.70;1.40;;;12.80;98.30;;;;;;5001686;28;20390;-79
2021/12/31 07:27:14;;;;;;;2.85;1.33;;;12.80;97.80;;;;;;5001382;28;20070;-77
2021/12/31 07:29:40;;;;;;;3.63;1.23;;;12.90;97.70;;;;;;5000249;28;20478;-78
2021/12/31 07:32:06;;;;;;;4.85;1.33;;;12.90;97.40;;;;;;5001806;28;20025;-81
2021/12/31 07:34:32;;;;;;;2.65;0.90;;;12.90;97.30;;;;;;5008975;28;20022;-88
2021/12/31 07:37:01;;;;;;;3.53;1.30;;;12.90;97.10;;;;;;5011425;28;20033;-78
2021/12/31 07:39:31;;;;;;;1.95;0.90;;;12.90;96.80;;;;;;5038448;28;20431;-83
2021/12/31 07:42:00;;;;;;;2.25;1.27;;;12.90;96.90;;;;;;5040316;28;20022;-85
2021/12/31 07:44:27;;;;;;;2.08;1.10;;;12.90;96.50;;;;;;5012508;28;20065;-79
2021/12/31 07:46:55;;;;;;;2.45;1.05;;;12.90;96.50;;;;;;5039713;28;20052;-85
2021/12/31 07:49:21;;;;;;;2.08;1.27;;;13.00;96.30;;;;;;5031414;28;20052;-87
2021/12/31 07:51:50;;;;;;;2.40;1.33;;;13.10;96.10;;;;;;5016633;28;20112;-82
2021/12/31 07:54:17;;;;;;;3.15;1.50;;;13.00;95.90;;;;;;5030997;28;20025;-77
2021/12/31 07:56:43;;;;;;;4.95;1.25;;;13.10;95.60;;;;;;5036582;28;20029;-77
2021/12/31 07:59:13;;;;;;;2.30;0.88;;;13.10;95.50;;;;;;5017047;28;20030;-77
2021/12/31 08:01:41;;;;;;;1.45;1.00;;;13.20;95.30;;;;;;5008395;28;20057;-75
2021/12/31 08:04:09;;;;;;;0.90;0.80;;;13.30;95.20;;;;;;5036814;28;20048;-80
2021/12/31 08:06:36;;;;;;;1.35;1.00;;;13.30;94.80;;;;;;5021198;28;20066;-80
2021/12/31 08:09:02;;;;;;;1.80;0.93;;;13.40;94.60;;;;;;4997356;28;20506;-82
2021/12/31 08:11:29;;;;;;;2.55;0.90;;;13.40;94.30;;;;;;4999780;28;20062;-76
2021/12/31 08:13:57;;;;;;;1.38;0.98;;;13.40;94.10;;;;;;4987943;28;20018;-78
2021/12/31 08:16:22;;;;;;;1.70;1.02;;;13.40;94.10;;;;;;5012250;28;20022;-76
2021/12/31 08:18:51;;;;;;;1.75;0.95;;;13.40;94.00;;;;;;5010355;28;20153;-75
2021/12/31 08:21:19;;;;;;;1.98;0.80;;;13.40;93.80;;;;;;5016179;28;20429;-80
2021/12/31 08:23:48;;;;;;;1.13;0.80;;;13.40;93.80;;;;;;4989178;28;20026;-76
2021/12/31 08:26:20;;;;;;;1.40;1.00;;;13.40;93.70;;;;;;5009726;28;20037;-76
2021/12/31 08:28:47;;;;;;;3.38;1.48;;;13.50;93.70;;;;;;5014616;28;20123;-79
2021/12/31 08:31:18;;;;;;;2.33;1.08;;;13.50;93.60;;;;;;4996745;28;20072;-73
2021/12/31 08:33:45;;;;;;;4.30;1.05;;;13.50;93.60;;;;;;4987474;28;20033;-75
2021/12/31 08:36:11;;;;;;;2.08;1.20;;;13.50;93.60;;;;;;5015996;28;20017;-75
2021/12/31 08:38:37;;;;;;;2.60;1.40;;;13.60;93.80;;;;;;4999710;28;20077;-77
2021/12/31 08:41:10;;;;;;;2.35;1.33;;;13.60;93.60;;;;;;4999836;28;20026;-77
2021/12/31 08:43:37;;;;;;;1.50;1.25;;;13.80;93.40;;;;;;4997445;28;20357;-76
2021/12/31 08:46:04;;;;;;;1.90;0.80;;;13.90;92.80;;;;;;4990493;28;20477;-76
2021/12/31 08:48:30;;;;;;;1.45;1.13;;;13.90;92.30;;;;;;4997023;28;20042;-77
2021/12/31 08:50:58;;;;;;;3.72;1.50;;;14.00;92.00;;;;;;4978369;28;20069;-75
2021/12/31 08:53:26;;;;;;;3.22;1.30;;;14.00;92.00;;;;;;4996240;28;20145;-73
2021/12/31 08:55:54;;;;;;;2.08;1.30;;;14.10;91.90;;;;;;4988691;28;20437;-74
2021/12/31 08:58:21;;;;;;;1.13;0.98;;;14.10;91.60;;;;;;4997594;28;20026;-73
2021/12/31 09:00:46;;;;;;;3.05;1.10;;;14.20;91.40;;;;;;4980076;28;20026;-74
2021/12/31 09:03:25;;;;;;;2.15;1.23;;;14.20;91.10;;;;;;4982928;28;20383;-73
2021/12/31 09:05:53;;;;;;;1.73;1.20;;;14.20;90.80;;;;;;4986510;28;20034;-78
2021/12/31 09:08:19;;;;;;;2.38;1.30;;;14.20;90.70;;;;;;4992114;28;20064;-73
2021/12/31 09:10:47;;;;;;;6.75;2.53;;;14.30;90.60;;;;;;5026404;28;20104;-75
2021/12/31 09:13:15;;;;;;;12.38;3.85;;;14.30;90.40;;;;;;5020103;28;20017;-72
2021/12/31 09:15:42;;;;;;;6.15;2.45;;;14.30;90.40;;;;;;5025156;28;20380;-73
2021/12/31 09:18:08;;;;;;;4.43;2.33;;;14.40;90.10;;;;;;5028056;28;20033;-73
2021/12/31 09:20:36;;;;;;;4.80;2.20;;;14.40;89.70;;;;;;5034752;28;20036;-77
2021/12/31 09:23:02;;;;;;;4.93;1.98;;;14.40;89.80;;;;;;5017428;28;20036;-73
2021/12/31 09:25:30;;;;;;;2.60;1.38;;;14.50;89.50;;;;;;5028983;28;20395;-74
2021/12/31 09:27:56;;;;;;;3.45;2.08;;;14.50;88.70;;;;;;5017375;28;20447;-74
2021/12/31 09:30:30;;;;;;;3.00;1.13;;;14.60;88.60;;;;;;5016718;28;20021;-73
2021/12/31 09:32:56;;;;;;;2.22;1.17;;;14.60;87.70;;;;;;5012815;28;20448;-76
2021/12/31 09:35:24;;;;;;;4.60;1.17;;;14.60;87.60;;;;;;5015511;28;20014;-77
2021/12/31 09:37:52;;;;;;;1.85;0.98;;;14.70;87.80;;;;;;5022427;28;20025;-76
2021/12/31 09:40:20;;;;;;;1.35;1.00;;;14.70;87.40;;;;;;5028943;28;20410;-75
2021/12/31 09:43:09;;;;;;;1.30;1.00;;;14.70;87.30;;;;;;5034110;28;20080;-83
2021/12/31 09:45:42;;;;;;;1.70;1.10;;;14.70;87.10;;;;;;5022749;28;20018;-74
2021/12/31 09:48:19;;;;;;;1.98;1.10;;;14.70;86.40;;;;;;5004128;28;20029;-73
2021/12/31 09:50:48;;;;;;;1.52;1.00;;;14.70;86.70;;;;;;5015793;28;20109;-73
2021/12/31 09:53:16;;;;;;;3.40;1.65;;;14.70;86.90;;;;;;5003268;28;20022;-76
2021/12/31 09:55:56;;;;;;;2.38;1.58;;;14.70;87.00;;;;;;4999235;28;20022;-72
2021/12/31 09:58:25;;;;;;;5.15;1.40;;;14.70;87.00;;;;;;5023211;28;20044;-75
2021/12/31 10:01:00;;;;;;;3.78;1.50;;;14.70;87.30;;;;;;5000056;28;20029;-74
2021/12/31 10:03:30;;;;;;;3.85;1.58;;;14.70;87.60;;;;;;5011001;28;20037;-74
2021/12/31 10:06:12;;;;;;;3.97;1.58;;;14.70;86.40;;;;;;5016326;28;20017;-72
2021/12/31 10:08:48;;;;;;;3.55;1.77;;;14.80;86.00;;;;;;5034094;28;20029;-77
2021/12/31 10:11:27;;;;;;;2.33;1.20;;;14.90;85.80;;;;;;5033997;28;20060;-77
2021/12/31 10:14:03;;;;;;;1.83;1.30;;;15.00;85.20;;;;;;5034001;28;20059;-76
2021/12/31 10:16:33;;;;;;;2.50;1.35;;;15.00;84.80;;;;;;5034317;28;20018;-77
2021/12/31 10:19:19;;;;;;;3.03;1.40;;;15.10;84.40;;;;;;5034227;28;20025;-77
2021/12/31 10:21:50;;;;;;;3.00;1.60;;;15.10;84.10;;;;;;5016448;28;20036;-78
2021/12/31 10:24:38;;;;;;;3.58;1.30;;;15.10;84.00;;;;;;5033785;28;20028;-78
2021/12/31 10:27:12;;;;;;;2.88;1.67;;;15.20;83.90;;;;;;5015665;28;20049;-77
2021/12/31 10:30:04;;;;;;;1.13;0.93;;;15.30;84.10;;;;;;5033397;28;20490;-77
2021/12/31 10:32:32;;;;;;;7.25;1.40;;;15.40;83.40;;;;;;5005245;28;20113;-77
2021/12/31 10:35:20;;;;;;;3.80;1.40;;;15.50;82.50;;;;;;5013748;28;20030;-76
2021/12/31 10:37:57;;;;;;;3.35;2.05;;;15.60;81.80;;;;;;4980508;28;20080;-76
2021/12/31 10:40:39;;;;;;;3.08;1.38;;;15.60;82.30;;;;;;5013891;28;20032;-77
2021/12/31 10:43:16;;;;;;;3.67;2.00;;;15.70;82.10;;;;;;4996065;28;20034;-78
2021/12/31 10:46:07;;;;;;;3.83;1.92;;;15.70;81.60;;;;;;5014337;28;20026;-81
2021/12/31 10:48:42;;;;;;;2.75;1.65;;;15.80;81.00;;;;;;5014471;28;20120;-80
2021/12/31 10:51:10;;;;;;;3.55;2.10;;;15.80;80.80;;;;;;5018322;28;20040;-81
2021/12/31 10:53:38;;;;;;;5.35;3.08;;;15.80;81.80;;;;;;4984847;28;20110;-81
2021/12/31 10:56:10;;;;;;;2.42;1.65;;;15.80;80.80;;;;;;4982122;28;20096;-80
2021/12/31 10:58:57;;;;;;;3.70;1.38;;;15.90;80.70;;;;;;4999048;28;20018;-81
2021/12/31 11:01:23;;;;;;;2.95;1.33;;;15.90;80.40;;;;;;5016860;28;20029;-81
2021/12/31 11:03:52;;;;;;;2.10;1.40;;;15.90;80.00;;;;;;5019545;28;20133;-81
2021/12/31 11:06:20;;;;;;;6.20;2.08;;;15.80;80.00;;;;;;5035484;28;20112;-80
2021/12/31 11:08:49;;;;;;;4.25;1.40;;;15.80;80.20;;;;;;4989258;28;20402;-79
2021/12/31 11:11:18;;;;;;;4.65;1.80;;;15.90;80.00;;;;;;5014565;28;20058;-80
2021/12/31 11:13:51;;;;;;;2.55;1.42;;;15.90;80.00;;;;;;5017333;28;20167;-81
2021/12/31 11:16:17;;;;;;;2.67;1.70;;;15.90;80.00;;;;;;5016454;28;20018;-82
2021/12/31 11:18:52;;;;;;;2.58;1.40;;;15.90;79.80;;;;;;4997650;28;20069;-79
2021/12/31 11:21:26;;;;;;;2.15;1.38;;;16.00;80.10;;;;;;5013627;28;20115;-82
2021/12/31 11:23:52;;;;;;;2.75;1.42;;;16.00;79.70;;;;;;5012932;28;20065;-78
2021/12/31 11:26:28;;;;;;;4.45;1.88;;;15.90;79.20;;;;;;4997796;28;20025;-81
2021/12/31 11:28:55;;;;;;;2.25;1.40;;;15.90;80.10;;;;;;4995666;28;20018;-82
2021/12/31 11:31:24;;;;;;;2.97;1.50;;;15.90;79.70;;;;;;5021651;28;20034;-83
2021/12/31 11:33:56;;;;;;;3.30;1.75;;;15.90;79.20;;;;;;5005518;28;20033;-82
2021/12/31 11:36:48;;;;;;;3.63;1.20;;;15.80;79.10;;;;;;4997208;28;20030;-84
2021/12/31 11:39:29;;;;;;;2.88;1.20;;;15.80;79.10;;;;;;4976599;28;20026;-85
2021/12/31 11:42:00;;;;;;;2.67;1.65;;;15.70;78.90;;;;;;4979512;28;20033;-86
2021/12/31 11:44:27;;;;;;;2.88;1.95;;;15.50;80.10;;;;;;4963761;28;20058;-86
2021/12/31 11:47:13;;;;;;;3.75;1.63;;;15.50;80.00;;;;;;4997315;28;20062;-83
2021/12/31 11:49:41;;;;;;;3.00;1.20;;;15.50;80.00;;;;;;4977018;28;20026;-88
2021/12/31 11:52:08;;;;;;;3.53;1.75;;;15.50;80.00;;;;;;4996403;28;20164;-85
2021/12/31 11:55:09;;;;;;;3.22;1.40;;;15.40;80.90;;;;;;4997453;28;20104;-85
2021/12/31 11:57:36;;;;;;;2.90;1.58;;;15.40;80.20;;;;;;4979584;28;20039;-85
2021/12/31 12:00:04;;;;;;;2.08;1.65;;;15.40;80.00;;;;;;4979438;28;20049;-81
2021/12/31 12:02:48;;;;;;;3.22;1.48;;;15.30;80.20;;;;;;4996710;28;20539;-85
2021/12/31 12:05:14;;;;;;;4.13;1.35;;;15.40;80.40;;;;;;4979808;28;20025;-85
2021/12/31 12:07:48;;;;;;;2.83;1.20;;;15.40;80.40;;;;;;4979314;28;20035;-85
2021/12/31 12:10:19;;;;;;;2.28;1.48;;;15.40;79.60;;;;;;4986632;28;20045;-86
2021/12/31 12:12:51;;;;;;;3.13;1.77;;;15.50;81.60;;;;;;4998595;28;20022;-85
2021/12/31 12:15:29;;;;;;;4.72;1.40;;;15.60;79.80;;;;;;4998855;28;20026;-81
2021/12/31 12:18:01;;;;;;;3.05;1.33;;;15.60;79.10;;;;;;4998649;28;20382;-79
2021/12/31 12:20:39;;;;;;;3.15;1.50;;;15.60;77.90;;;;;;4999200;28;20125;-81
2021/12/31 12:23:17;;;;;;;3.80;1.80;;;15.60;78.60;;;;;;4999241;28;20117;-80
2021/12/31 12:25:46;;;;;;;4.90;1.80;;;15.60;78.20;;;;;;5003490;28;20459;-80
2021/12/31 12:28:14;;;;;;;2.05;1.40;;;15.70;77.50;;;;;;5016363;28;20030;-80
2021/12/31 12:30:48;;;;;;;3.15;1.40;;;15.70;78.40;;;;;;4983951;28;20088;-81
2021/12/31 12:33:24;;;;;;;3.53;1.50;;;15.80;77.60;;;;;;4999558;28;20080;-80
2021/12/31 12:35:53;;;;;;;2.08;1.23;;;15.80;76.90;;;;;;5015737;28;20073;-79
2021/12/31 12:38:37;;;;;;;3.45;1.17;;;15.70;76.10;;;;;;5015127;28;20022;-79
2021/12/31 12:41:22;;;;;;;3.65;1.70;;;15.70;76.40;;;;;;5015025;28;20045;-79
2021/12/31 12:43:50;;;;;;;2.85;1.50;;;15.70;77.20;;;;;;5014588;28;20034;-78
2021/12/31 12:46:21;;;;;;;5.22;2.63;;;15.60;76.50;;;;;;5014481;28;20022;-78
2021/12/31 12:48:58;;;;;;;4.35;1.63;;;15.60;76.60;;;;;;4997645;28;20030;-78
2021/12/31 12:51:31;;;;;;;2.85;1.50;;;15.60;77.30;;;;;;5014357;28;20072;-78
2021/12/31 12:54:07;;;;;;;4.30;1.60;;;15.50;76.50;;;;;;5012971;28;20026;-78
2021/12/31 12:56:35;;;;;;;3.85;2.03;;;15.40;77.00;;;;;;5010337;28;20069;-79
2021/12/31 12:59:02;;;;;;;2.80;1.92;;;15.40;77.10;;;;;;5014178;28;20532;-77
2021/12/31 13:01:40;;;;;;;2.58;2.08;;;15.30;77.10;;;;;;5014427;28;20053;-78
2021/12/31 13:04:24;;;;;;;3.88;2.10;;;15.40;77.30;;;;;;5014819;28;20022;-78
2021/12/31 13:07:02;;;;;;;3.20;1.90;;;15.40;77.40;;;;;;5014056;28;20106;-79